Franktown, CO

3:12 AM MDT on August 26, 2016 (GMT -0600)
Monument Pass

Weather History for KMNH - January, 2013

Change the Weather History Date:

Wednesday, January 9, 2013

  Actual Average Record
Temperature  
Mean Temperature 34 °F -  
Max Temperature 48 °F - 55 °F (2005)
Min Temperature 21 °F - 9 °F (2016)
Degree Days  
Heating Degree Days 30    
Month to date heating degree days  
Cooling Degree Days 0    
Month to date cooling degree days  
Moisture  
Dew Point 16 °F    
Average Humidity 52    
Maximum Humidity 74    
Minimum Humidity 25    
Precipitation  
Precipitation 0.00 in - 0.01 in (2008)
Sea Level Pressure  
Sea Level Pressure 30.21 in    
Wind  
Wind Speed 13 mph (SSW)    
Max Wind Speed 24 mph    
Max Gust Speed 30 mph    
Visibility 10 miles    
Events      
T = Trace of Precipitation, MM = Missing Value Source: NWS Daily Summary

Daily Weather History Graph

Daily Weather History Graph

Search for Another Location

Airport or City:

Trip Planner

Search our weather history database for the weather conditions in past years. The results will help you decide how hot, cold, wet, or windy it might be!

Date:

Astronomy

Jan. 09, 2013 Rise Set
Actual Time 7:18 AM MST 4:54 PM MST
Civil Twilight 6:48 AM MST 5:23 PM MST
Nautical Twilight 6:15 AM MST 5:56 PM MST
Astronomical Twilight 5:42 AM MST 6:29 PM MST
Moon 4:59 AM MST (1/9) 2:58 PM MST (1/9)
Length of Visible Light 10h 35m
Length of Day
9h 35m
Waning Crescent, 6% of the Moon is Illuminated
Jan 9
Waning Crescent
Jan 11
New
Jan 18
First Quarter
Jan 26
Full
Feb 3
Last Quarter

Hourly Weather History & Observations

Time (MST) Temp. Windchill Dew Point Humidity Pressure Visibility Wind Dir Wind Speed Gust Speed Precip Events Conditions
12:15 AM 26.6 °F 16.8 °F 17.6 °F 69% 30.23 in 10.0 mi SSW 10.4 mph - N/A   Clear
12:35 AM 26.6 °F 15.7 °F 17.6 °F 69% 30.22 in 10.0 mi SSW 12.7 mph - N/A   Clear
12:55 AM 26.6 °F 16.2 °F 17.6 °F 69% 30.22 in 10.0 mi SSW 11.5 mph - N/A   Clear
1:15 AM 28.4 °F 18.0 °F 17.6 °F 64% 30.23 in 10.0 mi SW 12.7 mph - N/A   Clear
1:35 AM 26.6 °F 18.2 °F 17.6 °F 69% 30.23 in 10.0 mi SSW 8.1 mph - N/A   Clear
1:55 AM 28.4 °F 19.7 °F 15.8 °F 59% 30.23 in 10.0 mi SW 9.2 mph - N/A   Clear
2:14 AM 26.6 °F 17.5 °F 14.0 °F 59% 30.23 in 10.0 mi SW 9.2 mph - N/A   Clear
2:35 AM 28.4 °F 19.1 °F 14.0 °F 55% 30.23 in 10.0 mi WSW 10.4 mph - N/A   Clear
2:55 AM 26.6 °F 17.5 °F 12.2 °F 55% 30.23 in 10.0 mi West 9.2 mph - N/A   Clear
3:15 AM 26.6 °F 17.5 °F 12.2 °F 55% 30.22 in 10.0 mi West 9.2 mph - N/A   Clear
3:35 AM 30.2 °F 22.6 °F 10.4 °F 44% 30.22 in 10.0 mi WSW 8.1 mph - N/A   Clear
3:55 AM 30.2 °F 22.6 °F 10.4 °F 44% 30.22 in 10.0 mi SW 8.1 mph - N/A   Clear
4:15 AM 21.2 °F 11.7 °F 10.4 °F 63% 30.23 in 10.0 mi South 8.1 mph - N/A   Clear
4:35 AM 23.0 °F 13.9 °F 10.4 °F 59% 30.23 in 10.0 mi SSW 8.1 mph - N/A   Clear
4:55 AM 23.0 °F 11.7 °F 12.2 °F 63% 30.24 in 10.0 mi South 11.5 mph - N/A   Clear
5:15 AM 23.0 °F 11.1 °F 14.0 °F 68% 30.25 in 10.0 mi South 12.7 mph - N/A   Clear
5:35 AM 24.8 °F 14.0 °F 15.8 °F 69% 30.25 in 10.0 mi South 11.5 mph - N/A   Clear
5:55 AM 23.0 °F 11.1 °F 14.0 °F 68% 30.25 in 10.0 mi South 12.7 mph - N/A   Clear
6:15 AM 23.0 °F 12.4 °F 14.0 °F 68% 30.25 in 10.0 mi South 10.4 mph - N/A   Clear
6:35 AM 23.0 °F 10.6 °F 14.0 °F 68% 30.26 in 10.0 mi South 13.8 mph - N/A   Clear
6:55 AM 21.2 °F 8.9 °F 14.0 °F 74% 30.28 in 10.0 mi South 12.7 mph - N/A   Clear
7:15 AM 23.0 °F 10.6 °F 14.0 °F 68% 30.29 in 10.0 mi South 13.8 mph - N/A   Clear
7:35 AM 26.6 °F 13.4 °F 17.6 °F 69% 30.30 in 10.0 mi South 18.4 mph 24.2 mph N/A   Clear
7:55 AM 30.2 °F 17.4 °F 19.4 °F 64% 30.30 in 10.0 mi South 20.7 mph - N/A   Clear
8:15 AM 30.2 °F 18.5 °F 19.4 °F 64% 30.31 in 10.0 mi South 17.3 mph - N/A   Clear
8:35 AM 32.0 °F 21.2 °F 19.4 °F 60% 30.32 in 10.0 mi South 16.1 mph - N/A   Clear
8:55 AM 32.0 °F 21.2 °F 19.4 °F 60% 30.33 in 10.0 mi South 16.1 mph - N/A   Clear
9:15 AM 33.8 °F 21.6 °F 19.4 °F 56% 30.32 in 10.0 mi South 23.0 mph 27.6 mph N/A   Clear
9:34 AM 33.8 °F 21.3 °F 19.4 °F 56% 30.33 in 10.0 mi South 24.2 mph 29.9 mph N/A   Clear
9:55 AM 35.6 °F 24.0 °F 19.4 °F 52% 30.33 in 10.0 mi South 23.0 mph 29.9 mph N/A   Clear
10:15 AM 35.6 °F 26.2 °F 19.4 °F 52% 30.32 in 10.0 mi SSW 15.0 mph 24.2 mph N/A   Clear
10:54 AM 37.4 °F 28.2 °F 19.4 °F 48% 30.30 in 10.0 mi South 16.1 mph - N/A   Clear
11:14 AM 41.0 °F 32.2 °F 17.6 °F 39% 30.29 in 10.0 mi South 18.4 mph - N/A   Clear
11:35 AM 42.8 °F 35.4 °F 17.6 °F 36% 30.27 in 10.0 mi SSW 15.0 mph 20.7 mph N/A   Clear
11:55 AM 44.6 °F 38.8 °F 17.6 °F 34% 30.26 in 10.0 mi SSW 11.5 mph - N/A   Clear
12:15 PM 46.4 °F 40.7 °F 15.8 °F 29% 30.23 in 10.0 mi SSW 12.7 mph - N/A   Clear
12:35 PM 48.2 °F - 15.8 °F 27% 30.23 in 10.0 mi SSW 10.4 mph - N/A   Clear
12:55 PM 48.2 °F - 14.0 °F 25% 30.21 in 10.0 mi SSW 13.8 mph 17.3 mph N/A   Clear
1:15 PM 46.4 °F 39.8 °F 17.6 °F 32% 30.21 in 10.0 mi SSW 16.1 mph 19.6 mph N/A   Clear
1:35 PM 46.4 °F 39.2 °F 17.6 °F 32% 30.21 in 10.0 mi South 18.4 mph - N/A   Clear
1:55 PM 44.6 °F 36.6 °F 17.6 °F 34% 30.20 in 10.0 mi South 19.6 mph 26.5 mph N/A   Clear
2:15 PM 44.6 °F 36.4 °F 15.8 °F 31% 30.20 in 10.0 mi South 20.7 mph - N/A   Clear
2:35 PM 44.6 °F 36.9 °F 15.8 °F 31% 30.20 in 10.0 mi South 18.4 mph - N/A   Clear
2:55 PM 44.6 °F 36.9 °F 14.0 °F 29% 30.19 in 10.0 mi South 18.4 mph 25.3 mph N/A   Clear
3:15 PM 44.6 °F 37.8 °F 15.8 °F 31% 30.19 in 10.0 mi South 15.0 mph - N/A   Clear
3:35 PM 42.8 °F 34.8 °F 15.8 °F 34% 30.19 in 10.0 mi South 17.3 mph 21.9 mph N/A   Clear
3:55 PM 42.8 °F 34.8 °F 14.0 °F 31% 30.19 in 10.0 mi South 17.3 mph 25.3 mph N/A   Clear
4:14 PM 41.0 °F 33.9 °F 15.8 °F 36% 30.19 in 10.0 mi South 12.7 mph 18.4 mph N/A   Clear
4:35 PM 37.4 °F 28.9 °F 14.0 °F 38% 30.18 in 10.0 mi South 13.8 mph - N/A   Clear
4:54 PM 33.8 °F 24.3 °F 15.8 °F 48% 30.17 in 10.0 mi South 13.8 mph - N/A   Clear
5:15 PM 32.0 °F 23.0 °F 15.8 °F 51% 30.17 in 10.0 mi South 11.5 mph - N/A   Clear
5:35 PM 32.0 °F 22.5 °F 14.0 °F 48% 30.16 in 10.0 mi South 12.7 mph - N/A   Clear
6:15 PM 32.0 °F 21.6 °F 14.0 °F 48% 30.16 in 10.0 mi South 15.0 mph - N/A   Clear
6:54 PM 30.2 °F 18.9 °F 17.6 °F 60% 30.15 in 10.0 mi South 16.1 mph - N/A   Clear
7:14 PM 32.0 °F 21.2 °F 17.6 °F 55% 30.16 in 10.0 mi South 16.1 mph - N/A   Clear
7:35 PM 32.0 °F 20.1 °F 14.0 °F 48% 30.16 in 10.0 mi South 19.6 mph - N/A   Clear
7:54 PM 32.0 °F 20.8 °F 14.0 °F 48% 30.15 in 10.0 mi South 17.3 mph - N/A   Clear
8:15 PM 30.2 °F 18.9 °F 15.8 °F 55% 30.14 in 10.0 mi South 16.1 mph - N/A   Clear
8:34 PM 30.2 °F 19.3 °F 15.8 °F 55% 30.13 in 10.0 mi South 15.0 mph - N/A   Clear
8:55 PM 32.0 °F 20.8 °F 17.6 °F 55% 30.13 in 10.0 mi South 17.3 mph - N/A   Clear
9:15 PM 32.0 °F 20.5 °F 17.6 °F 55% 30.12 in 10.0 mi South 18.4 mph - N/A   Clear
9:35 PM 30.2 °F 18.5 °F 17.6 °F 60% 30.12 in 10.0 mi South 17.3 mph - N/A   Clear
9:55 PM 30.2 °F 18.1 °F 17.6 °F 60% 30.11 in 10.0 mi South 18.4 mph - N/A   Clear
10:15 PM 30.2 °F 18.5 °F 17.6 °F 60% 30.11 in 10.0 mi South 17.3 mph - N/A   Clear
10:35 PM 30.2 °F 18.1 °F 15.8 °F 55% 30.10 in 10.0 mi South 18.4 mph - N/A   Clear
10:55 PM 30.2 °F 18.5 °F 17.6 °F 60% 30.09 in 10.0 mi South 17.3 mph - N/A   Clear
11:15 PM 30.2 °F 19.3 °F 17.6 °F 60% 30.09 in 10.0 mi SSW 15.0 mph - N/A   Clear
11:35 PM 28.4 °F 18.0 °F 17.6 °F 64% 30.08 in 10.0 mi SSW 12.7 mph - N/A   Clear
11:55 PM 28.4 °F 18.0 °F 15.8 °F 59% 30.07 in 10.0 mi SSW 12.7 mph - N/A   Clear